createdAt,value
2022-10-01T00:01:37.348Z,74.26
2022-10-01T00:03:40.713Z,73.96
2022-10-01T00:05:43.292Z,74.75
2022-10-01T00:07:46.226Z,74.72
2022-10-01T00:09:48.861Z,74.81
2022-10-01T00:11:53.386Z,74.71
2022-10-01T00:13:56.017Z,75.09
2022-10-01T00:16:00.375Z,74.50
2022-10-01T00:18:03.143Z,74.69
2022-10-01T00:20:14.046Z,75.05
2022-10-01T00:22:18.943Z,75.21
2022-10-01T00:24:21.522Z,74.54
2022-10-01T00:26:27.234Z,74.05
2022-10-01T00:28:29.905Z,74.63
2022-10-01T00:30:32.635Z,74.20
2022-10-01T00:32:41.100Z,74.33
2022-10-01T00:34:43.705Z,74.08
2022-10-01T00:36:46.329Z,74.14
2022-10-01T00:38:49.226Z,74.42
2022-10-01T00:40:53.419Z,74.46
2022-10-01T00:42:55.985Z,74.40
2022-10-01T00:45:02.236Z,74.39
2022-10-01T00:47:17.008Z,74.49
2022-10-01T00:49:24.265Z,74.37
2022-10-01T00:51:29.583Z,74.72
2022-10-01T00:53:32.303Z,74.02
2022-10-01T00:55:37.409Z,74.13
2022-10-01T00:57:41.794Z,74.49
2022-10-01T00:59:45.656Z,74.25
2022-10-01T01:01:48.740Z,74.71
2022-10-01T01:03:51.520Z,74.81
2022-10-01T01:05:55.431Z,74.49
2022-10-01T01:07:58.338Z,74.41
2022-10-01T01:10:02.359Z,74.24
2022-10-01T01:12:15.520Z,73.70
2022-10-01T01:14:26.162Z,73.76
2022-10-01T01:16:35.912Z,73.77
2022-10-01T01:18:44.772Z,73.74
2022-10-01T01:21:09.284Z,74.02
2022-10-01T01:23:27.140Z,74.06
2022-10-01T01:25:36.915Z,73.89
2022-10-01T01:27:44.599Z,74.56
2022-10-01T01:29:55.302Z,74.76
2022-10-01T01:32:02.979Z,74.53
2022-10-01T01:34:12.189Z,74.58
2022-10-01T01:36:19.669Z,74.14
2022-10-01T01:38:27.980Z,74.17
2022-10-01T01:40:34.441Z,74.85
2022-10-01T01:42:41.084Z,74.69
2022-10-01T01:44:47.584Z,74.40
2022-10-01T01:46:55.107Z,74.64
2022-10-01T01:48:57.814Z,74.24
2022-10-01T01:51:11.031Z,74.34
2022-10-01T01:53:15.135Z,74.64
2022-10-01T01:55:19.093Z,74.40
2022-10-01T01:57:22.353Z,74.59
2022-10-01T01:59:25.784Z,74.43
2022-10-01T02:01:35.831Z,74.38
2022-10-01T02:03:39.949Z,74.45
2022-10-01T02:05:52.399Z,74.58
2022-10-01T02:08:17.649Z,74.32
2022-10-01T02:10:34.612Z,74.15
2022-10-01T02:12:52.961Z,73.79
2022-10-01T02:15:01.955Z,74.25
2022-10-01T02:17:16.528Z,74.33
2022-10-01T02:19:26.894Z,74.49
2022-10-01T02:21:35.273Z,74.91
2022-10-01T02:23:43.429Z,75.02
2022-10-01T02:25:49.353Z,74.98
2022-10-01T02:27:59.106Z,74.30
2022-10-01T02:30:08.336Z,74.84
2022-10-01T02:32:12.915Z,74.74
2022-10-01T02:34:20.424Z,75.29
2022-10-01T02:36:26.996Z,75.40
2022-10-01T02:38:30.355Z,75.47
2022-10-01T02:40:37.671Z,74.99
2022-10-01T02:42:42.409Z,74.79
2022-10-01T02:44:47.785Z,74.47
2022-10-01T02:46:55.641Z,74.70
2022-10-01T02:48:59.552Z,74.73
2022-10-01T02:51:07.443Z,75.06
2022-10-01T02:53:17.819Z,74.66
2022-10-01T02:55:25.974Z,74.61
2022-10-01T02:57:28.674Z,74.08
2022-10-01T02:59:31.232Z,74.63
2022-10-01T03:01:34.270Z,74.25
2022-10-01T03:03:37.018Z,74.82
2022-10-01T03:05:39.565Z,74.23
2022-10-01T03:07:43.689Z,74.30
2022-10-01T03:09:47.643Z,74.69
2022-10-01T03:11:50.263Z,74.43
2022-10-01T03:13:53.703Z,73.94
2022-10-01T03:15:56.263Z,74.05
2022-10-01T03:17:58.924Z,73.63
2022-10-01T03:20:01.773Z,73.62
2022-10-01T03:22:04.529Z,73.64
2022-10-01T03:24:07.476Z,73.62
2022-10-01T03:26:11.459Z,74.04
2022-10-01T03:28:14.084Z,73.40
2022-10-01T03:30:16.791Z,73.76
2022-10-01T03:32:20.187Z,73.85
2022-10-01T03:34:23.471Z,73.58
2022-10-01T03:36:26.409Z,73.49
2022-10-01T03:38:29.259Z,73.24
2022-10-01T03:40:33.352Z,73.41
2022-10-01T03:42:39.441Z,73.44
2022-10-01T03:44:42.016Z,73.40
2022-10-01T03:46:44.969Z,74.00
2022-10-01T03:48:47.560Z,73.59
2022-10-01T03:50:57.413Z,73.68
2022-10-01T03:53:00.116Z,73.06
2022-10-01T03:55:02.705Z,73.39
2022-10-01T03:57:06.088Z,72.98
2022-10-01T03:59:10.940Z,73.36
2022-10-01T04:01:13.603Z,73.66
2022-10-01T04:03:17.156Z,73.87
2022-10-01T04:05:19.719Z,74.09
2022-10-01T04:07:22.319Z,73.81
2022-10-01T04:09:24.925Z,73.91
2022-10-01T04:11:28.001Z,73.80
2022-10-01T04:13:31.253Z,73.23
2022-10-01T04:15:35.376Z,73.32
2022-10-01T04:17:40.676Z,72.80
2022-10-01T04:19:45.219Z,72.86
2022-10-01T04:21:47.979Z,73.46
2022-10-01T04:23:50.858Z,72.90
2022-10-01T04:25:53.549Z,73.03
2022-10-01T04:27:58.740Z,72.85
2022-10-01T04:30:01.336Z,73.05
2022-10-01T04:32:05.360Z,72.66
2022-10-01T04:34:07.947Z,72.29
2022-10-01T04:36:10.527Z,72.40
2022-10-01T04:38:14.881Z,70.72
2022-10-01T04:40:17.634Z,70.19
2022-10-01T04:42:20.635Z,70.48
2022-10-01T04:44:23.217Z,69.72
2022-10-01T04:46:26.258Z,69.74
2022-10-01T04:48:30.246Z,69.92
2022-10-01T04:50:33.584Z,69.34
2022-10-01T04:52:36.175Z,69.12
2022-10-01T04:54:38.868Z,68.33
2022-10-01T04:56:41.470Z,66.42
2022-10-01T04:58:44.047Z,66.12
2022-10-01T05:00:46.824Z,65.43
2022-10-01T05:02:50.898Z,63.52
2022-10-01T05:04:56.032Z,62.90
2022-10-01T05:06:58.640Z,64.28
2022-10-01T05:09:01.573Z,64.45
2022-10-01T05:11:04.205Z,62.82
2022-10-01T05:13:06.857Z,63.75
2022-10-01T05:15:10.503Z,63.99
2022-10-01T05:17:13.071Z,64.31
2022-10-01T05:19:15.732Z,62.95
2022-10-01T05:21:19.671Z,62.35
2022-10-01T05:23:22.264Z,61.41
2022-10-01T05:25:24.933Z,61.44
2022-10-01T05:27:27.620Z,61.51
2022-10-01T05:29:30.581Z,61.17
2022-10-01T05:31:34.632Z,60.73
2022-10-01T05:33:37.907Z,61.86
2022-10-01T05:35:42.161Z,60.66
2022-10-01T05:37:46.092Z,60.74
2022-10-01T05:39:49.238Z,61.35
2022-10-01T05:41:51.797Z,61.92
2022-10-01T05:43:54.429Z,60.38
2022-10-01T05:46:00.408Z,60.50
2022-10-01T05:48:05.561Z,61.16
2022-10-01T05:50:09.389Z,61.39
2022-10-01T05:52:12.558Z,61.82
2022-10-01T05:54:19.644Z,60.71
2022-10-01T05:56:22.226Z,60.29
2022-10-01T05:58:27.422Z,60.84
2022-10-01T06:00:31.176Z,60.32
2022-10-01T06:02:33.811Z,60.99
2022-10-01T06:04:40.895Z,59.91
2022-10-01T06:06:43.912Z,59.85
2022-10-01T06:08:46.837Z,59.82
2022-10-01T06:10:51.667Z,61.24
2022-10-01T06:13:00.330Z,60.77
2022-10-01T06:15:02.882Z,58.69
2022-10-01T06:17:05.485Z,58.31
2022-10-01T06:19:08.095Z,58.72
2022-10-01T06:21:11.083Z,59.21
2022-10-01T06:23:14.720Z,59.59
2022-10-01T06:25:17.473Z,59.19
2022-10-01T06:27:21.390Z,60.32
2022-10-01T06:29:24.202Z,59.90
2022-10-01T06:31:26.850Z,60.10
2022-10-01T06:33:30.189Z,61.39
2022-10-01T06:35:33.550Z,62.62
2022-10-01T06:37:38.271Z,61.76
2022-10-01T06:39:40.848Z,62.64
2022-10-01T06:41:43.457Z,62.17
2022-10-01T06:43:49.703Z,62.98
2022-10-01T06:45:53.055Z,63.26
2022-10-01T06:47:56.390Z,64.51
2022-10-01T06:49:59.754Z,66.11
2022-10-01T06:52:20.495Z,67.14
2022-10-01T06:54:23.065Z,65.27
2022-10-01T06:56:25.735Z,65.92
2022-10-01T06:58:28.300Z,66.93
2022-10-01T07:00:34.684Z,66.50
2022-10-01T07:02:37.460Z,66.64
2022-10-01T07:04:41.234Z,65.75
2022-10-01T07:06:43.804Z,66.86
2022-10-01T07:08:50.313Z,67.33
2022-10-01T07:10:52.923Z,67.69
2022-10-01T07:12:55.513Z,64.96
2022-10-01T07:14:58.071Z,65.12
2022-10-01T07:17:02.023Z,64.24
2022-10-01T07:19:04.623Z,64.56
2022-10-01T07:21:07.157Z,64.66
2022-10-01T07:23:12.600Z,64.62
2022-10-01T07:25:15.996Z,64.45
2022-10-01T07:27:19.078Z,64.86
2022-10-01T07:29:21.659Z,63.15
2022-10-01T07:31:24.458Z,62.81
2022-10-01T07:33:28.501Z,62.27
2022-10-01T07:35:31.181Z,61.80
2022-10-01T07:37:33.745Z,62.54
2022-10-01T07:39:36.409Z,63.10
2022-10-01T07:41:39.223Z,63.09
2022-10-01T07:43:43.732Z,63.12
2022-10-01T07:45:47.020Z,64.23
2022-10-01T07:47:56.899Z,62.21
2022-10-01T07:50:00.828Z,60.33
2022-10-01T07:52:03.457Z,60.06
2022-10-01T07:54:06.803Z,60.66
2022-10-01T07:56:09.367Z,60.21
2022-10-01T07:58:12.847Z,60.68
2022-10-01T08:00:15.819Z,60.62
2022-10-01T08:02:19.025Z,60.61
2022-10-01T08:04:40.189Z,61.61
2022-10-01T08:06:44.127Z,60.47
2022-10-01T08:08:47.058Z,60.66
2022-10-01T08:10:50.909Z,59.72
2022-10-01T08:12:53.536Z,60.92
2022-10-01T08:14:56.107Z,60.80
2022-10-01T08:16:59.066Z,62.40
2022-10-01T08:19:01.683Z,63.27
2022-10-01T08:21:05.066Z,61.07
2022-10-01T08:23:11.396Z,61.00
2022-10-01T08:25:14.042Z,62.49
2022-10-01T08:27:16.649Z,62.30
2022-10-01T08:29:19.552Z,63.52
2022-10-01T08:31:22.199Z,62.30
2022-10-01T08:33:24.911Z,63.52
2022-10-01T08:35:29.102Z,63.56
2022-10-01T08:37:31.693Z,62.83
2022-10-01T08:39:36.645Z,63.26
2022-10-01T08:41:51.738Z,63.55
2022-10-01T08:43:54.793Z,63.40
2022-10-01T08:46:00.946Z,63.75
2022-10-01T08:48:09.170Z,62.94
2022-10-01T08:50:17.556Z,64.58
2022-10-01T08:52:24.228Z,64.12
2022-10-01T08:54:35.152Z,63.12
2022-10-01T08:56:44.492Z,63.80
2022-10-01T08:58:51.018Z,64.29
2022-10-01T09:00:53.696Z,63.93
2022-10-01T09:03:01.280Z,63.72
2022-10-01T09:05:06.820Z,63.41
2022-10-01T09:07:20.318Z,63.10
2022-10-01T09:09:39.631Z,62.99
2022-10-01T09:12:05.496Z,62.93
2022-10-01T09:14:24.948Z,63.63
2022-10-01T09:16:36.325Z,64.10
2022-10-01T09:18:50.090Z,63.44
2022-10-01T09:20:55.843Z,64.52
2022-10-01T09:23:14.811Z,64.39
2022-10-01T09:25:22.961Z,64.41
2022-10-01T09:27:29.141Z,63.76
2022-10-01T09:29:42.754Z,63.17
2022-10-01T09:31:50.508Z,63.58
2022-10-01T09:33:59.034Z,64.72
2022-10-01T09:36:12.422Z,64.42
2022-10-01T09:38:22.034Z,65.08
2022-10-01T09:40:34.077Z,64.72
2022-10-01T09:42:38.028Z,64.53
2022-10-01T09:44:40.646Z,63.96
2022-10-01T09:46:46.056Z,64.94
2022-10-01T09:48:57.871Z,63.73
2022-10-01T09:51:02.963Z,63.15
2022-10-01T09:53:06.893Z,62.72
2022-10-01T09:55:23.719Z,62.81
2022-10-01T09:57:31.481Z,63.12
2022-10-01T09:59:41.254Z,62.47
2022-10-01T10:01:47.762Z,62.09
2022-10-01T10:03:58.268Z,63.91
2022-10-01T10:06:01.848Z,64.06
2022-10-01T10:08:12.059Z,65.02
2022-10-01T10:10:25.261Z,64.10
2022-10-01T10:12:30.821Z,64.89
2022-10-01T10:14:37.296Z,64.94
2022-10-01T10:16:47.262Z,65.00
2022-10-01T10:18:52.277Z,66.01
2022-10-01T10:20:56.551Z,66.36
2022-10-01T10:23:10.319Z,67.06
2022-10-01T10:25:20.947Z,67.07
2022-10-01T10:27:27.447Z,67.74
2022-10-01T10:29:31.865Z,67.16
2022-10-01T10:31:42.134Z,67.62
2022-10-01T10:33:54.082Z,67.10
2022-10-01T10:36:01.260Z,67.04
2022-10-01T10:38:04.006Z,67.41
2022-10-01T10:40:08.948Z,67.17
2022-10-01T10:42:15.637Z,67.81
2022-10-01T10:44:21.371Z,68.97
2022-10-01T10:46:29.576Z,69.39
2022-10-01T10:48:40.505Z,69.06
2022-10-01T10:50:45.855Z,68.85
2022-10-01T10:52:48.513Z,69.60
2022-10-01T10:54:52.188Z,69.17
2022-10-01T10:57:00.687Z,69.34
2022-10-01T10:59:09.011Z,68.58
2022-10-01T11:01:16.352Z,68.67
2022-10-01T11:03:23.409Z,68.74
2022-10-01T11:05:31.728Z,68.46
2022-10-01T11:07:35.031Z,68.72
2022-10-01T11:10:02.912Z,68.88
2022-10-01T11:12:18.095Z,68.96
2022-10-01T11:14:32.180Z,69.44
2022-10-01T11:17:10.835Z,68.78
2022-10-01T11:19:28.738Z,69.15
2022-10-01T11:21:49.815Z,69.47
2022-10-01T11:24:14.205Z,69.67
2022-10-01T11:26:26.191Z,70.03
2022-10-01T11:28:40.784Z,70.20
2022-10-01T11:30:56.126Z,70.21
2022-10-01T11:33:11.817Z,69.69
2022-10-01T11:35:28.364Z,70.26
2022-10-01T11:37:47.576Z,70.78
2022-10-01T11:39:54.375Z,70.09
2022-10-01T11:42:03.283Z,70.13
2022-10-01T11:44:15.570Z,70.02
2022-10-01T11:46:29.754Z,70.65
2022-10-01T11:48:38.332Z,70.61
2022-10-01T11:50:48.286Z,70.34
2022-10-01T11:52:58.526Z,69.22
2022-10-01T11:55:31.981Z,69.89
2022-10-01T11:57:52.351Z,69.73
2022-10-01T12:00:00.929Z,69.57
2022-10-01T12:02:15.037Z,69.33
2022-10-01T12:04:32.811Z,69.67
2022-10-01T12:06:41.884Z,69.48
2022-10-01T12:08:53.124Z,69.57
2022-10-01T12:11:01.497Z,70.12
2022-10-01T12:13:09.717Z,70.25
2022-10-01T12:15:18.778Z,69.69
2022-10-01T12:17:27.203Z,70.39
2022-10-01T12:19:32.803Z,70.36
2022-10-01T12:21:40.848Z,70.05
2022-10-01T12:23:52.398Z,69.93
2022-10-01T12:26:02.054Z,70.22
2022-10-01T12:28:11.447Z,70.25
2022-10-01T12:30:17.399Z,70.75
2022-10-01T12:32:31.540Z,70.30
2022-10-01T12:34:53.291Z,70.92
2022-10-01T12:37:10.279Z,70.58
2022-10-01T12:39:29.178Z,71.00
2022-10-01T12:41:42.089Z,69.96
2022-10-01T12:44:03.802Z,70.53
2022-10-01T12:46:15.205Z,70.78
2022-10-01T12:48:24.737Z,70.87
2022-10-01T12:50:39.870Z,70.57
2022-10-01T12:52:49.715Z,70.50
2022-10-01T12:55:07.399Z,70.54
2022-10-01T12:57:33.087Z,70.48
2022-10-01T12:59:52.565Z,70.25
2022-10-01T13:02:07.879Z,69.52
2022-10-01T13:04:27.214Z,69.76
2022-10-01T13:06:41.645Z,69.33
2022-10-01T13:08:55.278Z,69.58
2022-10-01T13:11:12.337Z,69.67
2022-10-01T13:13:21.478Z,69.74
2022-10-01T13:15:28.002Z,69.07
2022-10-01T13:17:42.227Z,69.00
2022-10-01T13:19:52.239Z,69.46
2022-10-01T13:22:08.600Z,69.28
2022-10-01T13:24:19.915Z,69.07
2022-10-01T13:26:30.624Z,69.22
2022-10-01T13:28:48.713Z,69.45
2022-10-01T13:31:00.418Z,69.72
2022-10-01T13:33:05.050Z,70.43
2022-10-01T13:35:25.403Z,70.63
2022-10-01T13:37:39.960Z,69.99
2022-10-01T13:39:43.621Z,69.17
2022-10-01T13:41:48.026Z,68.78
2022-10-01T13:43:56.725Z,69.37
2022-10-01T13:46:08.929Z,69.82
2022-10-01T13:48:20.302Z,69.96
2022-10-01T13:50:25.573Z,70.70
2022-10-01T13:52:28.586Z,69.88
2022-10-01T13:54:37.509Z,70.40
2022-10-01T13:56:40.094Z,70.17
2022-10-01T13:58:45.049Z,70.67
2022-10-01T14:00:51.179Z,71.18
2022-10-01T14:03:03.934Z,70.83
2022-10-01T14:05:28.317Z,70.56
2022-10-01T14:07:36.631Z,70.28
2022-10-01T14:09:45.737Z,69.94
2022-10-01T14:12:09.547Z,69.37
2022-10-01T14:14:37.827Z,70.08
2022-10-01T14:16:42.956Z,70.12
2022-10-01T14:18:49.704Z,70.15
2022-10-01T14:21:00.916Z,69.79
2022-10-01T14:23:11.886Z,70.32
2022-10-01T14:25:24.229Z,70.86
2022-10-01T14:27:34.152Z,70.77
2022-10-01T14:29:49.009Z,71.08
2022-10-01T14:32:02.701Z,70.64
2022-10-01T14:34:21.800Z,71.36
2022-10-01T14:36:32.283Z,71.56
2022-10-01T14:38:35.484Z,71.69
2022-10-01T14:40:40.673Z,71.16
2022-10-01T14:42:43.383Z,71.46
2022-10-01T14:44:48.331Z,70.72
2022-10-01T14:46:51.826Z,71.32
2022-10-01T14:48:58.400Z,71.10
2022-10-01T14:51:02.475Z,70.65
2022-10-01T14:53:06.232Z,71.00
2022-10-01T14:55:13.966Z,70.75
2022-10-01T14:57:25.341Z,71.26
2022-10-01T14:59:35.672Z,71.20
2022-10-01T15:01:39.638Z,70.95
2022-10-01T15:03:44.947Z,71.26
2022-10-01T15:05:49.957Z,70.95
2022-10-01T15:07:53.039Z,70.74
2022-10-01T15:10:06.672Z,71.11
2022-10-01T15:12:09.414Z,71.80
2022-10-01T15:14:17.578Z,71.96
2022-10-01T15:16:23.072Z,71.59
2022-10-01T15:18:27.794Z,71.30
2022-10-01T15:20:30.451Z,71.50
2022-10-01T15:22:34.298Z,71.37
2022-10-01T15:24:41.282Z,71.56
2022-10-01T15:26:47.233Z,71.54
2022-10-01T15:28:50.445Z,71.53
2022-10-01T15:30:53.197Z,71.79
2022-10-01T15:32:56.185Z,71.79
2022-10-01T15:35:02.886Z,71.96
2022-10-01T15:37:05.929Z,71.93
2022-10-01T15:39:25.397Z,71.26
2022-10-01T15:41:32.754Z,71.45
2022-10-01T15:43:37.086Z,71.50
2022-10-01T15:45:39.936Z,71.90
2022-10-01T15:47:51.647Z,71.60
2022-10-01T15:50:19.054Z,71.75
2022-10-01T15:52:40.302Z,71.82
2022-10-01T15:54:45.742Z,71.53
2022-10-01T15:56:49.116Z,71.55
2022-10-01T15:58:55.793Z,71.78
2022-10-01T16:01:04.291Z,71.63
2022-10-01T16:03:07.085Z,71.70
2022-10-01T16:05:18.920Z,71.84
2022-10-01T16:07:22.559Z,71.88
2022-10-01T16:09:27.655Z,72.17
2022-10-01T16:11:32.843Z,72.21
2022-10-01T16:13:39.218Z,71.50
2022-10-01T16:15:41.972Z,72.23
2022-10-01T16:17:54.784Z,72.01
2022-10-01T16:19:59.262Z,72.05
2022-10-01T16:22:20.746Z,72.12
2022-10-01T16:24:28.571Z,72.01
2022-10-01T16:26:41.679Z,71.59
2022-10-01T16:28:44.302Z,72.26
2022-10-01T16:30:51.623Z,72.33
2022-10-01T16:32:54.857Z,72.42
2022-10-01T16:35:28.806Z,71.60
2022-10-01T16:37:32.724Z,71.43
2022-10-01T16:39:35.344Z,71.87
2022-10-01T16:41:37.988Z,71.90
2022-10-01T16:43:40.673Z,72.10
2022-10-01T16:45:43.861Z,71.37
2022-10-01T16:47:47.326Z,71.36
2022-10-01T16:49:52.575Z,71.96
2022-10-01T16:51:56.064Z,71.11
2022-10-01T16:54:01.843Z,71.30
2022-10-01T16:56:04.447Z,71.33
2022-10-01T16:58:07.502Z,71.77
2022-10-01T17:00:13.997Z,70.98
2022-10-01T17:02:16.761Z,70.33
2022-10-01T17:04:19.673Z,70.84
2022-10-01T17:06:22.291Z,71.55
2022-10-01T17:08:24.870Z,71.23
2022-10-01T17:10:30.953Z,71.27
2022-10-01T17:12:33.659Z,71.11
2022-10-01T17:14:36.237Z,71.29
2022-10-01T17:16:39.110Z,70.72
2022-10-01T17:18:43.671Z,71.21
2022-10-01T17:20:46.979Z,71.27
2022-10-01T17:22:49.993Z,71.30
2022-10-01T17:24:52.565Z,71.08
2022-10-01T17:26:56.498Z,70.98
2022-10-01T17:28:59.105Z,71.46
2022-10-01T17:31:04.141Z,70.97
2022-10-01T17:33:07.129Z,71.07
2022-10-01T17:35:10.698Z,71.00
2022-10-01T17:37:13.511Z,70.37
2022-10-01T17:39:18.944Z,70.78
2022-10-01T17:41:21.576Z,70.45
2022-10-01T17:43:25.668Z,70.21
2022-10-01T17:45:28.408Z,70.37
2022-10-01T17:47:31.038Z,70.87
2022-10-01T17:49:33.624Z,70.27
2022-10-01T17:51:36.711Z,70.04
2022-10-01T17:53:42.602Z,70.86
2022-10-01T17:55:46.697Z,70.22
2022-10-01T17:57:49.239Z,70.34
2022-10-01T17:59:53.239Z,70.32
2022-10-01T18:01:55.841Z,70.49
2022-10-01T18:04:00.300Z,70.06
2022-10-01T18:06:03.968Z,70.50
2022-10-01T18:08:06.507Z,69.81
2022-10-01T18:10:11.301Z,70.62
2022-10-01T18:12:14.869Z,71.01
2022-10-01T18:14:18.807Z,70.12
2022-10-01T18:16:23.695Z,70.76
2022-10-01T18:19:51.229Z,70.29
2022-10-01T18:20:48.953Z,70.29
2022-10-01T18:22:52.103Z,70.28
2022-10-01T18:24:54.654Z,70.00
2022-10-01T18:26:57.513Z,70.31
2022-10-01T18:29:00.178Z,70.32
2022-10-01T18:31:18.721Z,70.30
2022-10-01T18:33:23.070Z,70.46
2022-10-01T18:35:31.931Z,70.47
2022-10-01T18:37:40.033Z,70.52
2022-10-01T18:39:48.268Z,70.44
2022-10-01T18:41:51.314Z,70.26
2022-10-01T18:43:53.924Z,70.28
2022-10-01T18:46:08.623Z,70.84
2022-10-01T18:48:30.689Z,71.25
2022-10-01T18:50:40.057Z,71.56
2022-10-01T18:52:58.635Z,71.63
2022-10-01T18:55:21.266Z,71.75
2022-10-01T18:57:41.973Z,72.02
2022-10-01T18:59:59.474Z,72.10
2022-10-01T19:02:18.818Z,72.36
2022-10-01T19:04:50.729Z,71.56
2022-10-01T19:07:07.988Z,71.83
2022-10-01T19:09:24.035Z,72.23
2022-10-01T19:11:34.711Z,72.25
2022-10-01T19:13:47.907Z,71.74
2022-10-01T19:16:06.828Z,72.32
2022-10-01T19:18:33.894Z,72.25
2022-10-01T19:20:49.874Z,72.80
2022-10-01T19:23:06.649Z,72.48
2022-10-01T19:25:20.433Z,72.98
2022-10-01T19:27:34.891Z,73.21
2022-10-01T19:29:54.997Z,74.33
2022-10-01T19:32:02.033Z,75.33
2022-10-01T19:34:10.790Z,76.30
2022-10-01T19:36:25.848Z,76.90
2022-10-01T19:38:37.386Z,77.89
2022-10-01T19:40:44.045Z,76.93
2022-10-01T19:42:51.570Z,76.93
2022-10-01T19:44:59.516Z,77.52
2022-10-01T19:47:15.656Z,77.61
2022-10-01T19:49:25.342Z,78.56
2022-10-01T19:51:34.340Z,77.96
2022-10-01T19:53:38.324Z,78.18
2022-10-01T19:55:40.923Z,78.28
2022-10-01T19:57:44.995Z,78.77
2022-10-01T19:59:48.199Z,78.69
2022-10-01T20:01:55.179Z,78.52
2022-10-01T20:04:02.665Z,78.22
2022-10-01T20:06:08.693Z,77.54
2022-10-01T20:08:19.551Z,77.33
2022-10-01T20:10:30.452Z,77.66
2022-10-01T20:12:42.120Z,77.69
2022-10-01T20:15:12.613Z,78.07
2022-10-01T20:17:22.721Z,78.29
2022-10-01T20:19:32.716Z,78.55
2022-10-01T20:21:45.398Z,79.33
2022-10-01T20:23:57.031Z,79.92
2022-10-01T20:26:10.415Z,80.63
2022-10-01T20:28:19.911Z,79.61
2022-10-01T20:30:23.961Z,80.33
2022-10-01T20:32:31.867Z,80.60
2022-10-01T20:34:44.779Z,80.95
2022-10-01T20:36:56.146Z,81.62
2022-10-01T20:39:05.583Z,80.25
2022-10-01T20:41:14.755Z,80.60
2022-10-01T20:43:23.192Z,81.37
2022-10-01T20:45:28.690Z,81.87
2022-10-01T20:47:37.818Z,82.39
2022-10-01T20:49:47.070Z,82.80
2022-10-01T20:51:58.199Z,83.10
2022-10-01T20:54:10.481Z,83.59
2022-10-01T20:56:16.543Z,83.88
2022-10-01T20:58:23.959Z,83.89
2022-10-01T21:00:28.592Z,84.00
2022-10-01T21:02:39.473Z,84.12
2022-10-01T21:04:49.754Z,83.77
2022-10-01T21:06:57.410Z,83.92
2022-10-01T21:09:04.485Z,83.67
2022-10-01T21:11:14.366Z,83.20
2022-10-01T21:13:25.536Z,81.53
2022-10-01T21:15:39.648Z,80.28
2022-10-01T21:17:50.817Z,79.94
2022-10-01T21:20:12.852Z,80.40
2022-10-01T21:22:22.424Z,79.60
2022-10-01T21:24:44.076Z,79.83
2022-10-01T21:26:57.123Z,79.64
2022-10-01T21:29:19.223Z,79.45
2022-10-01T21:31:39.529Z,79.42
2022-10-01T21:33:53.301Z,79.47
2022-10-01T21:36:02.959Z,79.56
2022-10-01T21:38:12.548Z,79.96
2022-10-01T21:40:25.337Z,79.93
2022-10-01T21:42:39.736Z,80.57
2022-10-01T21:45:04.068Z,80.70
2022-10-01T21:47:13.003Z,81.24
2022-10-01T21:49:27.067Z,81.19
2022-10-01T21:51:45.134Z,81.34
2022-10-01T21:54:10.925Z,80.89
2022-10-01T21:56:29.578Z,80.45
2022-10-01T21:58:49.667Z,80.29
2022-10-01T22:01:00.272Z,80.32
2022-10-01T22:03:12.866Z,78.41
2022-10-01T22:05:24.630Z,78.56
2022-10-01T22:07:35.306Z,78.84
2022-10-01T22:09:44.370Z,79.10
2022-10-01T22:11:52.744Z,78.10
2022-10-01T22:13:59.346Z,78.34
2022-10-01T22:16:07.584Z,78.81
2022-10-01T22:18:19.306Z,78.09
2022-10-01T22:20:25.178Z,78.58
2022-10-01T22:22:32.371Z,78.52
2022-10-01T22:24:39.923Z,79.03
2022-10-01T22:26:48.031Z,79.26
2022-10-01T22:28:55.313Z,79.31
2022-10-01T22:31:03.072Z,78.92
2022-10-01T22:33:11.860Z,78.99
2022-10-01T22:35:19.361Z,79.35
2022-10-01T22:37:27.117Z,78.48
2022-10-01T22:39:35.200Z,77.53
2022-10-01T22:41:43.005Z,77.77
2022-10-01T22:43:45.799Z,76.91
2022-10-01T22:46:04.810Z,77.10
2022-10-01T22:48:25.063Z,77.05
2022-10-01T22:50:42.297Z,77.88
2022-10-01T22:52:58.030Z,76.91
2022-10-01T22:55:11.545Z,76.73
2022-10-01T22:57:26.993Z,77.44
2022-10-01T22:59:40.999Z,77.79
2022-10-01T23:02:00.212Z,78.11
2022-10-01T23:04:35.186Z,78.49
2022-10-01T23:06:42.559Z,78.77
2022-10-01T23:08:49.483Z,79.02
2022-10-01T23:11:02.476Z,79.57
2022-10-01T23:13:16.337Z,80.04
2022-10-01T23:15:30.957Z,79.97
2022-10-01T23:17:42.083Z,80.64
2022-10-01T23:19:58.963Z,80.82
2022-10-01T23:22:06.624Z,81.64
2022-10-01T23:24:20.383Z,81.84
2022-10-01T23:26:37.442Z,82.63
2022-10-01T23:28:51.068Z,83.45
2022-10-01T23:31:04.480Z,83.71
2022-10-01T23:33:21.799Z,81.83
2022-10-01T23:35:31.605Z,81.35
2022-10-01T23:37:52.628Z,82.32
2022-10-01T23:40:00.050Z,82.20
2022-10-01T23:42:13.771Z,82.87
2022-10-01T23:44:23.835Z,83.68
2022-10-01T23:46:30.694Z,83.92
2022-10-01T23:48:40.664Z,84.39
2022-10-01T23:50:49.018Z,85.06
2022-10-01T23:53:04.243Z,85.55
2022-10-01T23:55:33.156Z,86.13
2022-10-01T23:57:39.751Z,86.26
2022-10-01T23:59:45.977Z,86.55
